Time;durP1;ratioP1;P1;durP2;ratioP2;P2;SDS_P1;SDS_P2;PMS_P1;PMS_P2;Temp;Humidity;BMP_temperature;BMP_pressure;BME280_temperature;BME280_humidity;BME280_pressure;Samples;Min_cycle;Max_cycle;Signal;HPM_P1;HPM_P2
2024/01/12 00:00:46;;;;;;;5.38;1.60;;;6.80;99.90;;;;;;5131216;28;20019;-80
2024/01/12 00:03:12;;;;;;;6.75;2.85;;;6.90;99.90;;;;;;5130420;28;20368;-80
2024/01/12 00:05:37;;;;;;;5.53;2.40;;;6.80;99.90;;;;;;5112468;28;20047;-79
2024/01/12 00:08:04;;;;;;;7.57;2.70;;;6.80;99.90;;;;;;5131217;28;20019;-80
2024/01/12 00:10:29;;;;;;;8.38;4.30;;;6.90;99.90;;;;;;5130441;28;20156;-80
2024/01/12 00:12:55;;;;;;;9.77;4.25;;;6.80;99.90;;;;;;5131101;28;20093;-79
2024/01/12 00:15:21;;;;;;;7.95;3.50;;;6.80;99.90;;;;;;5130383;28;20351;-80
2024/01/12 00:17:46;;;;;;;9.80;4.72;;;6.80;99.90;;;;;;5131386;28;20381;-80
2024/01/12 00:20:12;;;;;;;7.68;4.00;;;6.80;99.90;;;;;;5130911;28;20050;-79
2024/01/12 00:22:38;;;;;;;10.40;5.15;;;6.80;99.90;;;;;;5112677;28;20027;-79
2024/01/12 00:25:04;;;;;;;7.55;4.28;;;6.80;99.90;;;;;;5130958;28;20125;-81
2024/01/12 00:27:30;;;;;;;4.97;2.22;;;6.80;99.90;;;;;;5113591;27;20019;-80
2024/01/12 00:29:55;;;;;;;11.73;4.53;;;6.80;99.90;;;;;;5134972;27;20128;-80
2024/01/12 00:32:21;;;;;;;9.00;3.72;;;6.80;99.90;;;;;;5134426;27;20030;-80
2024/01/12 00:34:47;;;;;;;8.73;4.25;;;6.80;99.90;;;;;;5134832;27;20404;-80
2024/01/12 00:37:13;;;;;;;7.18;3.08;;;6.70;99.90;;;;;;5134298;27;20053;-80
2024/01/12 00:39:38;;;;;;;8.18;3.92;;;6.80;99.90;;;;;;5134532;27;20023;-81
2024/01/12 00:42:05;;;;;;;6.13;2.30;;;6.80;99.90;;;;;;5116590;27;20059;-81
2024/01/12 00:44:31;;;;;;;9.00;2.83;;;6.80;99.90;;;;;;5134379;27;20047;-82
2024/01/12 00:46:56;;;;;;;8.50;2.72;;;6.80;99.90;;;;;;5134421;27;20046;-80
2024/01/12 00:49:22;;;;;;;15.50;5.32;;;6.70;99.90;;;;;;5133364;27;20126;-81
2024/01/12 00:51:48;;;;;;;4.55;2.00;;;6.70;99.90;;;;;;5133625;27;20035;-80
2024/01/12 00:54:14;;;;;;;5.57;1.73;;;6.80;99.90;;;;;;5133752;27;20122;-80
2024/01/12 00:56:41;;;;;;;4.68;2.03;;;6.70;99.90;;;;;;5134445;27;20104;-80
2024/01/12 00:59:07;;;;;;;3.28;1.60;;;6.70;99.90;;;;;;5134308;27;20030;-80
2024/01/12 01:01:35;;;;;;;2.90;1.80;;;6.70;99.90;;;;;;5133452;27;20073;-80
2024/01/12 01:04:01;;;;;;;3.20;1.52;;;6.70;99.90;;;;;;5134274;27;20015;-81
2024/01/12 01:06:28;;;;;;;7.80;2.85;;;6.70;99.90;;;;;;5133559;27;20029;-81
2024/01/12 01:08:54;;;;;;;6.15;3.00;;;6.70;99.90;;;;;;5133769;27;20026;-81
2024/01/12 01:11:20;;;;;;;8.48;4.05;;;6.70;99.90;;;;;;5133337;27;20371;-80
2024/01/12 01:13:46;;;;;;;5.55;1.85;;;6.80;99.90;;;;;;5133742;27;20037;-81
2024/01/12 01:16:12;;;;;;;3.92;1.95;;;6.70;99.90;;;;;;5115461;27;20366;-81
2024/01/12 01:18:38;;;;;;;5.95;2.90;;;6.70;99.90;;;;;;5133975;27;20051;-81
2024/01/12 01:21:03;;;;;;;8.13;4.15;;;6.80;99.90;;;;;;5134194;27;20080;-80
2024/01/12 01:23:29;;;;;;;5.28;2.38;;;6.80;99.90;;;;;;5115270;27;20114;-80
2024/01/12 01:25:55;;;;;;;6.68;2.28;;;6.70;99.90;;;;;;5134011;27;20035;-80
2024/01/12 01:28:20;;;;;;;7.50;2.38;;;6.70;99.90;;;;;;5133648;27;20019;-80
2024/01/12 01:30:47;;;;;;;5.10;1.70;;;6.70;99.90;;;;;;5133778;27;20452;-80
2024/01/12 01:33:13;;;;;;;5.53;2.03;;;6.70;99.90;;;;;;5134308;27;20027;-80
2024/01/12 01:35:38;;;;;;;5.43;1.85;;;6.70;99.90;;;;;;5115074;27;20159;-80
2024/01/12 01:38:05;;;;;;;6.97;2.78;;;6.70;99.90;;;;;;5134030;27;20110;-80
2024/01/12 01:40:30;;;;;;;9.52;2.30;;;6.70;99.90;;;;;;5133301;27;20037;-80
2024/01/12 01:42:56;;;;;;;4.30;1.88;;;6.70;99.90;;;;;;5134580;27;20023;-80
2024/01/12 01:45:22;;;;;;;5.53;1.90;;;6.70;99.90;;;;;;5133267;27;20027;-80
2024/01/12 01:47:48;;;;;;;4.10;2.30;;;6.70;99.90;;;;;;5133446;27;20024;-80
2024/01/12 01:50:15;;;;;;;8.93;1.63;;;6.70;99.90;;;;;;5133464;27;20448;-80
2024/01/12 01:52:43;;;;;;;9.05;1.80;;;6.60;99.90;;;;;;5133136;27;20102;-80
2024/01/12 01:55:11;;;;;;;6.05;1.85;;;6.60;99.90;;;;;;5133814;27;20494;-79
2024/01/12 01:57:39;;;;;;;5.20;1.40;;;6.60;99.90;;;;;;5132719;27;20107;-80
2024/01/12 02:00:05;;;;;;;3.92;1.58;;;6.70;99.90;;;;;;5133682;27;20022;-80
2024/01/12 02:02:31;;;;;;;5.25;1.98;;;6.70;99.90;;;;;;5132678;27;20031;-80
2024/01/12 02:05:00;;;;;;;6.05;1.42;;;6.70;99.90;;;;;;5133530;27;20027;-79
2024/01/12 02:07:26;;;;;;;4.80;1.75;;;6.60;99.90;;;;;;5132903;27;20456;-80
2024/01/12 02:09:52;;;;;;;4.68;1.40;;;6.60;99.90;;;;;;5115032;27;20023;-79
2024/01/12 02:12:18;;;;;;;4.95;1.33;;;6.60;99.90;;;;;;5132886;27;20024;-79
2024/01/12 02:14:44;;;;;;;2.70;1.15;;;6.60;99.90;;;;;;5132853;27;20159;-80
2024/01/12 02:17:10;;;;;;;8.02;1.67;;;6.60;99.90;;;;;;5133240;27;20105;-79
2024/01/12 02:19:35;;;;;;;4.45;1.60;;;6.60;99.90;;;;;;5132519;27;20405;-80
2024/01/12 02:22:01;;;;;;;5.35;1.75;;;6.60;99.90;;;;;;5133369;27;20029;-80
2024/01/12 02:24:27;;;;;;;4.70;1.50;;;6.60;99.90;;;;;;5132225;27;20062;-80
2024/01/12 02:26:53;;;;;;;6.22;1.20;;;6.60;99.90;;;;;;5133515;27;20340;-80
2024/01/12 02:29:19;;;;;;;4.13;1.15;;;6.70;99.90;;;;;;5114086;27;20023;-80
2024/01/12 02:31:46;;;;;;;2.63;1.08;;;6.60;99.90;;;;;;5133121;27;20042;-80
2024/01/12 02:34:13;;;;;;;3.35;1.17;;;6.60;99.90;;;;;;5132920;27;20084;-80
2024/01/12 02:36:39;;;;;;;3.60;1.33;;;6.60;99.90;;;;;;5132298;27;20018;-80
2024/01/12 02:39:06;;;;;;;6.45;1.55;;;6.60;99.90;;;;;;5114222;27;20023;-80
2024/01/12 02:41:32;;;;;;;4.07;1.38;;;6.60;99.90;;;;;;5132246;27;20119;-80
2024/01/12 02:43:57;;;;;;;4.90;1.48;;;6.60;99.90;;;;;;5132981;27;20063;-80
2024/01/12 02:46:24;;;;;;;3.15;1.50;;;6.60;99.90;;;;;;5132608;27;20019;-80
2024/01/12 02:48:50;;;;;;;3.45;1.30;;;6.70;99.90;;;;;;5133522;27;20020;-80
2024/01/12 02:51:16;;;;;;;5.63;1.60;;;6.60;99.90;;;;;;5132469;27;20045;-80
2024/01/12 02:53:42;;;;;;;5.70;1.60;;;6.60;99.90;;;;;;5132408;27;20106;-79
2024/01/12 02:56:07;;;;;;;5.13;1.75;;;6.60;99.90;;;;;;5113902;27;20023;-80
2024/01/12 02:58:33;;;;;;;7.35;1.70;;;6.60;99.90;;;;;;5131478;27;20416;-79
2024/01/12 03:00:59;;;;;;;3.05;1.30;;;6.60;99.90;;;;;;5132335;27;20038;-80
2024/01/12 03:03:25;;;;;;;3.30;1.40;;;6.60;99.90;;;;;;5113144;27;20440;-79
2024/01/12 03:05:51;;;;;;;4.80;1.70;;;6.60;99.90;;;;;;5132582;27;20023;-79
2024/01/12 03:08:16;;;;;;;4.35;1.55;;;6.60;99.90;;;;;;5132477;27;20019;-79
2024/01/12 03:10:42;;;;;;;4.70;1.52;;;6.60;99.90;;;;;;5131887;27;20760;-79
2024/01/12 03:13:08;;;;;;;4.18;1.30;;;6.60;99.90;;;;;;5132129;27;20428;-79
2024/01/12 03:15:33;;;;;;;2.95;1.27;;;6.60;99.90;;;;;;5131164;27;20016;-80
2024/01/12 03:17:59;;;;;;;6.30;1.55;;;6.60;99.90;;;;;;5132099;27;20385;-79
2024/01/12 03:20:25;;;;;;;3.78;1.55;;;6.60;99.90;;;;;;5131147;27;20136;-80
2024/01/12 03:22:51;;;;;;;5.40;1.30;;;6.60;99.90;;;;;;5131672;27;20027;-80
2024/01/12 03:25:17;;;;;;;5.80;1.60;;;6.60;99.90;;;;;;5131859;27;20015;-79
2024/01/12 03:27:43;;;;;;;5.22;1.70;;;6.60;99.90;;;;;;5131255;27;20600;-80
2024/01/12 03:30:09;;;;;;;6.05;1.40;;;6.60;99.90;;;;;;5131554;27;20282;-79
2024/01/12 03:32:35;;;;;;;3.05;1.33;;;6.60;99.90;;;;;;5131160;27;20104;-79
2024/01/12 03:35:02;;;;;;;4.18;1.50;;;6.60;99.90;;;;;;5131762;27;20504;-79
2024/01/12 03:37:27;;;;;;;7.90;1.77;;;6.60;99.90;;;;;;5130816;27;20030;-79
2024/01/12 03:39:53;;;;;;;4.18;1.50;;;6.60;99.90;;;;;;5131268;27;20102;-79
2024/01/12 03:42:19;;;;;;;2.67;1.45;;;6.60;99.90;;;;;;5131664;28;20140;-79
2024/01/12 03:44:45;;;;;;;4.93;1.70;;;6.60;99.90;;;;;;5112547;28;20024;-79
2024/01/12 03:47:11;;;;;;;4.80;1.48;;;6.60;99.90;;;;;;5131537;28;20063;-78
2024/01/12 03:49:36;;;;;;;2.63;1.40;;;6.60;99.90;;;;;;5112769;28;20046;-79
2024/01/12 03:52:03;;;;;;;4.50;1.63;;;6.60;99.90;;;;;;5131148;28;20027;-79
2024/01/12 03:54:29;;;;;;;2.92;1.35;;;6.60;99.90;;;;;;5130971;28;20038;-79
2024/01/12 03:56:55;;;;;;;4.18;1.15;;;6.60;99.90;;;;;;5131575;28;20042;-79
2024/01/12 03:59:21;;;;;;;2.17;1.05;;;6.60;99.90;;;;;;5131632;28;20421;-79
2024/01/12 04:01:47;;;;;;;2.70;1.50;;;6.50;99.90;;;;;;5131393;27;20024;-78
2024/01/12 04:04:13;;;;;;;3.42;1.88;;;6.60;99.90;;;;;;5135486;27;20067;-78
2024/01/12 04:06:42;;;;;;;4.13;1.75;;;6.50;99.90;;;;;;5116305;27;20019;-79
2024/01/12 04:09:11;;;;;;;3.35;1.63;;;6.50;99.90;;;;;;5135551;27;20051;-79
2024/01/12 04:11:37;;;;;;;4.85;1.38;;;6.50;99.90;;;;;;5135008;27;20110;-78
2024/01/12 04:14:03;;;;;;;3.85;1.40;;;6.60;99.90;;;;;;5135332;27;20290;-78
2024/01/12 04:16:29;;;;;;;4.63;1.30;;;6.50;99.90;;;;;;5135165;27;20019;-78
2024/01/12 04:18:55;;;;;;;4.28;1.17;;;6.50;99.90;;;;;;5134865;27;20064;-79
2024/01/12 04:21:20;;;;;;;4.53;1.30;;;6.50;99.90;;;;;;5135285;27;20110;-79
2024/01/12 04:23:46;;;;;;;4.38;1.23;;;6.60;99.90;;;;;;5134645;27;20037;-79
2024/01/12 04:26:12;;;;;;;4.88;1.40;;;6.60;99.90;;;;;;5134660;27;20444;-79
2024/01/12 04:28:38;;;;;;;4.63;1.40;;;6.60;99.90;;;;;;5134811;27;20046;-79
2024/01/12 04:31:04;;;;;;;4.93;1.35;;;6.60;99.90;;;;;;5135208;27;20033;-79
2024/01/12 04:33:31;;;;;;;6.13;1.55;;;6.60;99.90;;;;;;5134568;27;20015;-79
2024/01/12 04:35:57;;;;;;;6.05;1.80;;;6.50;99.90;;;;;;5116349;27;20027;-79
2024/01/12 04:38:24;;;;;;;4.82;1.65;;;6.50;99.90;;;;;;5134893;27;20019;-78
2024/01/12 04:40:50;;;;;;;4.43;1.60;;;6.50;99.90;;;;;;5134163;27;20313;-79
2024/01/12 04:43:16;;;;;;;4.63;1.55;;;6.60;99.90;;;;;;5116842;27;20031;-79
2024/01/12 04:45:42;;;;;;;2.67;1.60;;;6.60;99.90;;;;;;5134582;27;20027;-79
2024/01/12 04:48:07;;;;;;;2.30;1.10;;;6.60;99.90;;;;;;5135209;27;20448;-79
2024/01/12 04:50:33;;;;;;;2.72;1.08;;;6.60;99.90;;;;;;5115959;27;20019;-79
2024/01/12 04:52:59;;;;;;;6.53;1.77;;;6.60;99.90;;;;;;5134760;27;20087;-79
2024/01/12 04:55:25;;;;;;;5.68;1.40;;;6.60;99.90;;;;;;5134267;27;20538;-79
2024/01/12 04:57:51;;;;;;;5.20;1.55;;;6.60;99.90;;;;;;5115372;27;20055;-79
2024/01/12 05:00:19;;;;;;;5.00;1.70;;;6.60;99.90;;;;;;5134580;27;20459;-79
2024/01/12 05:02:44;;;;;;;2.65;1.13;;;6.50;99.90;;;;;;5133981;27;20046;-79
2024/01/12 05:05:10;;;;;;;1.40;1.13;;;6.50;99.90;;;;;;5134554;27;20030;-79
2024/01/12 05:07:36;;;;;;;5.55;1.40;;;6.50;99.90;;;;;;5133831;27;20058;-78
2024/01/12 05:10:05;;;;;;;4.72;1.67;;;6.50;99.90;;;;;;5134478;27;20018;-78
2024/01/12 05:12:31;;;;;;;6.32;1.20;;;6.50;99.90;;;;;;5133449;27;20035;-79
2024/01/12 05:14:57;;;;;;;1.20;0.80;;;6.50;99.90;;;;;;5134032;27;20113;-79
2024/01/12 05:17:23;;;;;;;4.97;1.42;;;6.50;99.90;;;;;;5134415;27;20043;-79
2024/01/12 05:19:49;;;;;;;5.68;1.40;;;6.50;99.90;;;;;;5133411;27;20027;-78
2024/01/12 05:22:15;;;;;;;2.80;1.13;;;6.40;99.90;;;;;;5134174;27;20027;-79
2024/01/12 05:24:41;;;;;;;2.90;0.90;;;6.40;99.90;;;;;;5133508;27;20019;-79
2024/01/12 05:27:07;;;;;;;3.05;1.42;;;6.40;99.90;;;;;;5134119;27;20467;-78
2024/01/12 05:29:33;;;;;;;3.38;1.10;;;6.40;99.90;;;;;;5133612;27;20011;-79
2024/01/12 05:32:00;;;;;;;3.30;1.25;;;6.40;99.90;;;;;;5133314;27;20079;-79
2024/01/12 05:34:25;;;;;;;3.83;1.25;;;6.40;99.90;;;;;;5133684;27;20420;-80
2024/01/12 05:36:51;;;;;;;1.70;0.90;;;6.40;99.90;;;;;;5133245;27;20039;-80
2024/01/12 05:39:17;;;;;;;3.28;0.90;;;6.40;99.90;;;;;;5133688;27;20015;-79
2024/01/12 05:41:43;;;;;;;2.13;1.33;;;6.40;99.90;;;;;;5133579;27;20042;-80
2024/01/12 05:44:09;;;;;;;1.90;0.90;;;6.40;99.90;;;;;;5133787;27;20436;-79
2024/01/12 05:46:34;;;;;;;2.88;0.90;;;6.40;99.90;;;;;;5132752;27;20019;-80
2024/01/12 05:49:04;;;;;;;2.95;0.77;;;6.40;99.90;;;;;;5115398;27;20175;-79
2024/01/12 05:51:30;;;;;;;3.13;0.88;;;6.40;99.90;;;;;;5133775;27;20045;-80
2024/01/12 05:53:56;;;;;;;2.58;1.05;;;6.50;99.90;;;;;;5133065;27;20027;-80
2024/01/12 05:56:22;;;;;;;5.20;1.00;;;6.50;99.90;;;;;;5133473;27;20065;-79
2024/01/12 05:58:48;;;;;;;4.55;1.10;;;6.50;99.90;;;;;;5133223;27;20023;-80
2024/01/12 06:01:14;;;;;;;2.28;1.10;;;6.50;99.90;;;;;;5133975;27;20030;-79
2024/01/12 06:03:40;;;;;;;5.65;1.25;;;6.40;99.90;;;;;;5132905;27;20466;-80
2024/01/12 06:06:05;;;;;;;2.47;1.13;;;6.40;99.90;;;;;;5133763;27;20362;-79
2024/01/12 06:08:31;;;;;;;4.88;1.30;;;6.40;99.90;;;;;;5133450;27;20519;-79
2024/01/12 06:10:57;;;;;;;2.28;1.20;;;6.40;99.90;;;;;;5132728;27;20072;-79
2024/01/12 06:13:23;;;;;;;2.53;1.30;;;6.30;99.90;;;;;;5133231;27;20107;-79
2024/01/12 06:15:49;;;;;;;2.38;0.95;;;6.40;99.90;;;;;;5132475;27;20417;-79
2024/01/12 06:18:14;;;;;;;4.03;0.93;;;6.30;99.90;;;;;;5133107;27;20132;-79
2024/01/12 06:20:40;;;;;;;6.60;1.23;;;6.30;99.90;;;;;;5132836;27;20019;-79
2024/01/12 06:23:06;;;;;;;2.33;1.23;;;6.30;99.90;;;;;;5133095;27;20439;-79
2024/01/12 06:25:36;;;;;;;2.88;1.23;;;6.30;99.90;;;;;;5132137;27;20015;-79
2024/01/12 06:28:02;;;;;;;3.40;1.40;;;6.40;99.90;;;;;;5133250;27;20110;-79
2024/01/12 06:30:28;;;;;;;3.60;1.55;;;6.40;99.90;;;;;;5132728;27;20100;-79
2024/01/12 06:32:54;;;;;;;3.25;1.33;;;6.30;99.90;;;;;;5132373;27;20104;-79
2024/01/12 06:35:20;;;;;;;2.85;1.30;;;6.40;99.90;;;;;;5132729;27;20094;-80
2024/01/12 06:37:45;;;;;;;4.43;1.73;;;6.40;99.90;;;;;;5132298;27;20339;-80
2024/01/12 06:40:11;;;;;;;3.28;1.30;;;6.40;99.90;;;;;;5132546;27;20110;-80
2024/01/12 06:42:37;;;;;;;2.33;1.30;;;6.30;99.90;;;;;;5114143;27;20058;-80
2024/01/12 06:45:07;;;;;;;4.28;1.10;;;6.30;99.90;;;;;;5133024;27;20055;-80
2024/01/12 06:47:33;;;;;;;3.22;1.40;;;6.30;99.90;;;;;;5114742;27;20023;-80
2024/01/12 06:49:59;;;;;;;1.85;1.40;;;6.40;99.90;;;;;;5132177;27;20039;-80
2024/01/12 06:52:25;;;;;;;3.13;1.40;;;6.40;99.90;;;;;;5114232;27;20035;-79
2024/01/12 06:54:50;;;;;;;1.60;1.30;;;6.30;99.90;;;;;;5133778;27;20023;-78
2024/01/12 06:57:16;;;;;;;1.63;1.17;;;6.30;99.90;;;;;;5132038;27;20046;-78
2024/01/12 06:59:42;;;;;;;1.75;1.50;;;6.40;99.90;;;;;;5131883;27;20023;-78
2024/01/12 07:02:08;;;;;;;2.17;1.23;;;6.40;99.90;;;;;;5132413;27;20034;-79
2024/01/12 07:04:35;;;;;;;4.07;1.60;;;6.40;99.90;;;;;;5132048;27;20062;-78
2024/01/12 07:07:02;;;;;;;5.75;1.10;;;6.40;99.90;;;;;;5131748;27;20037;-78
2024/01/12 07:09:27;;;;;;;4.53;1.05;;;6.40;99.90;;;;;;5132173;27;20083;-79
2024/01/12 07:11:53;;;;;;;3.92;1.20;;;6.40;99.90;;;;;;5131618;27;20185;-78
2024/01/12 07:14:19;;;;;;;2.78;1.50;;;6.40;99.90;;;;;;5132469;27;20019;-79
2024/01/12 07:16:45;;;;;;;4.15;1.35;;;6.30;99.90;;;;;;5112875;27;20026;-78
2024/01/12 07:19:11;;;;;;;4.30;1.38;;;6.40;99.90;;;;;;5131657;27;20340;-78
2024/01/12 07:21:37;;;;;;;3.90;1.10;;;6.40;99.90;;;;;;5131494;27;20132;-79
2024/01/12 07:24:03;;;;;;;5.47;1.10;;;6.40;99.90;;;;;;5131681;27;20341;-79
2024/01/12 07:26:29;;;;;;;1.70;1.05;;;6.40;99.90;;;;;;5131770;27;20023;-79
2024/01/12 07:28:55;;;;;;;8.35;1.48;;;6.40;99.90;;;;;;5131352;27;20110;-80
2024/01/12 07:31:20;;;;;;;2.40;1.35;;;6.30;99.90;;;;;;5131933;27;20333;-78
2024/01/12 07:33:46;;;;;;;1.67;1.10;;;6.30;99.90;;;;;;5131146;27;20042;-80
2024/01/12 07:36:12;;;;;;;2.65;1.20;;;6.30;99.90;;;;;;5131583;27;20090;-78
2024/01/12 07:38:38;;;;;;;2.38;1.20;;;6.30;99.90;;;;;;5131598;27;20107;-80
2024/01/12 07:41:03;;;;;;;1.23;0.80;;;6.30;99.90;;;;;;5113311;28;20064;-81
2024/01/12 07:43:32;;;;;;;4.82;2.35;;;6.30;99.90;;;;;;5132417;28;20027;-80
2024/01/12 07:45:59;;;;;;;4.05;1.10;;;6.40;99.90;;;;;;5131352;28;20031;-80
2024/01/12 07:48:24;;;;;;;3.55;1.10;;;6.30;99.90;;;;;;5131986;28;20044;-81
2024/01/12 07:50:50;;;;;;;3.13;1.23;;;6.40;99.90;;;;;;5131030;28;20018;-80
2024/01/12 07:53:16;;;;;;;3.65;1.73;;;6.40;99.90;;;;;;5131490;28;20164;-80
2024/01/12 07:55:42;;;;;;;5.32;1.75;;;6.40;99.90;;;;;;5130834;28;20239;-79
2024/01/12 07:58:07;;;;;;;5.15;1.50;;;6.40;99.90;;;;;;5132178;28;20035;-80
2024/01/12 08:00:33;;;;;;;7.60;1.48;;;6.40;99.90;;;;;;5132414;28;20360;-80
2024/01/12 08:02:59;;;;;;;4.03;1.52;;;6.40;99.90;;;;;;5131656;28;20049;-80
2024/01/12 08:05:24;;;;;;;2.72;1.45;;;6.40;99.90;;;;;;5131952;28;20039;-80
2024/01/12 08:07:50;;;;;;;4.88;1.90;;;6.40;99.90;;;;;;5130900;28;20079;-79
2024/01/12 08:10:18;;;;;;;4.57;1.80;;;6.30;99.90;;;;;;5113136;28;20413;-80
2024/01/12 08:12:48;;;;;;;2.53;2.13;;;6.30;99.90;;;;;;5112417;28;20043;-80
2024/01/12 08:15:14;;;;;;;4.28;2.28;;;6.40;99.90;;;;;;5131637;28;20015;-79
2024/01/12 08:17:40;;;;;;;5.22;2.33;;;6.40;99.90;;;;;;5131339;28;20015;-80
2024/01/12 08:20:06;;;;;;;4.03;2.20;;;6.30;99.90;;;;;;5131224;28;20031;-80
2024/01/12 08:22:32;;;;;;;5.07;2.17;;;6.30;99.90;;;;;;5131285;28;20051;-80
2024/01/12 08:24:59;;;;;;;5.03;1.83;;;6.30;99.90;;;;;;5131072;28;20043;-80
2024/01/12 08:27:25;;;;;;;4.15;2.03;;;6.30;99.90;;;;;;5131063;28;20054;-80
2024/01/12 08:29:51;;;;;;;4.30;2.17;;;6.30;99.90;;;;;;5130770;28;20451;-80
2024/01/12 08:32:16;;;;;;;7.35;3.20;;;6.30;99.90;;;;;;5131079;28;20091;-79
2024/01/12 08:34:42;;;;;;;3.63;2.78;;;6.30;99.90;;;;;;5131261;28;20019;-80
2024/01/12 08:37:08;;;;;;;6.50;2.90;;;6.20;99.90;;;;;;5131409;28;20090;-80
2024/01/12 08:39:36;;;;;;;4.90;2.85;;;6.20;99.90;;;;;;5113019;28;20019;-79
2024/01/12 08:42:02;;;;;;;5.88;2.75;;;6.20;99.90;;;;;;5131249;28;20038;-80
2024/01/12 08:44:28;;;;;;;4.70;3.40;;;6.10;99.90;;;;;;5131221;28;20011;-80
2024/01/12 08:46:54;;;;;;;6.00;2.90;;;6.10;99.90;;;;;;5130658;28;20472;-80
2024/01/12 08:49:20;;;;;;;5.03;3.03;;;6.00;99.90;;;;;;5134080;27;20019;-80
2024/01/12 08:51:49;;;;;;;5.60;3.30;;;6.00;99.90;;;;;;5137063;27;20038;-81
2024/01/12 08:54:15;;;;;;;3.60;3.30;;;5.90;99.90;;;;;;5133400;27;20019;-79
2024/01/12 08:56:41;;;;;;;5.28;3.90;;;5.80;99.90;;;;;;5126265;27;20120;-79
2024/01/12 08:59:08;;;;;;;4.68;3.60;;;5.90;99.90;;;;;;5128357;27;20413;-79
2024/01/12 09:01:33;;;;;;;5.60;3.42;;;5.80;99.90;;;;;;5139436;27;20329;-79
2024/01/12 09:04:01;;;;;;;4.50;3.67;;;5.80;99.90;;;;;;5103442;27;20027;-79
2024/01/12 09:06:27;;;;;;;6.30;3.88;;;5.80;99.90;;;;;;5095723;28;20123;-79
2024/01/12 09:08:53;;;;;;;6.07;4.20;;;5.80;99.90;;;;;;5095169;28;20028;-80
2024/01/12 09:11:19;;;;;;;7.40;4.40;;;5.80;99.90;;;;;;5114127;28;20023;-79
2024/01/12 09:13:45;;;;;;;6.72;4.05;;;5.80;99.90;;;;;;5113375;28;20175;-80
2024/01/12 09:16:11;;;;;;;5.93;4.28;;;5.70;99.90;;;;;;5114003;28;20094;-80
2024/01/12 09:18:37;;;;;;;6.55;4.57;;;5.70;99.90;;;;;;5113698;28;20054;-80
2024/01/12 09:21:04;;;;;;;4.47;4.07;;;5.70;99.90;;;;;;5113390;28;20084;-80
2024/01/12 09:23:29;;;;;;;6.13;5.25;;;5.60;99.90;;;;;;5121520;27;20521;-79
2024/01/12 09:25:55;;;;;;;4.85;4.35;;;5.70;99.90;;;;;;5102678;28;20024;-79
2024/01/12 09:28:21;;;;;;;7.85;4.75;;;5.70;99.90;;;;;;5101151;28;20023;-79
2024/01/12 09:30:47;;;;;;;6.80;5.32;;;5.60;99.90;;;;;;5116591;27;20023;-80
2024/01/12 09:33:14;;;;;;;6.38;4.63;;;5.60;99.90;;;;;;5133606;27;20077;-80
2024/01/12 09:35:40;;;;;;;5.28;4.78;;;5.60;99.90;;;;;;5134148;27;20027;-79
2024/01/12 09:38:06;;;;;;;11.45;5.88;;;5.60;99.90;;;;;;5133376;27;20171;-80
2024/01/12 09:40:33;;;;;;;9.85;6.55;;;5.60;99.90;;;;;;5134040;27;20094;-80
2024/01/12 09:43:00;;;;;;;7.28;5.90;;;5.60;99.90;;;;;;5098381;27;20046;-80
2024/01/12 09:45:26;;;;;;;10.63;7.18;;;5.60;99.90;;;;;;5134118;27;20027;-80
2024/01/12 09:47:53;;;;;;;10.68;7.75;;;5.50;99.90;;;;;;5133436;27;20106;-79
2024/01/12 09:50:22;;;;;;;8.85;7.22;;;5.50;99.90;;;;;;5133560;27;20098;-80
2024/01/12 09:52:51;;;;;;;15.60;7.43;;;5.50;99.90;;;;;;5133235;27;20034;-79
2024/01/12 09:55:17;;;;;;;13.80;8.23;;;5.50;99.90;;;;;;5133593;27;20023;-79
2024/01/12 09:57:46;;;;;;;9.43;8.48;;;5.50;99.90;;;;;;5127178;27;20043;-79
2024/01/12 10:00:16;;;;;;;11.80;9.40;;;5.40;99.90;;;;;;5122630;27;20022;-79
2024/01/12 10:02:42;;;;;;;9.93;8.88;;;5.30;99.90;;;;;;5128979;27;20023;-79
2024/01/12 10:05:08;;;;;;;14.85;10.00;;;5.40;99.90;;;;;;5127431;27;20027;-80
2024/01/12 10:07:34;;;;;;;14.13;10.70;;;5.30;99.90;;;;;;5101449;27;20016;-80
2024/01/12 10:10:00;;;;;;;14.35;11.07;;;5.30;99.90;;;;;;5105406;27;20038;-80
2024/01/12 10:12:26;;;;;;;14.43;12.02;;;5.30;99.90;;;;;;5121509;27;20027;-78
2024/01/12 10:15:07;;;;;;;15.82;11.88;;;5.30;99.90;;;;;;5120731;27;20013;-81
2024/01/12 10:17:34;;;;;;;16.02;11.82;;;5.30;99.90;;;;;;5131427;27;20065;-80
2024/01/12 10:20:00;;;;;;;13.77;12.30;;;5.30;99.90;;;;;;5132485;27;20015;-80
2024/01/12 10:22:26;;;;;;;14.48;12.52;;;5.30;99.90;;;;;;5126333;27;20023;-80
2024/01/12 10:24:59;;;;;;;19.30;14.68;;;5.30;99.90;;;;;;5102799;27;20104;-79
2024/01/12 10:27:26;;;;;;;16.17;14.23;;;5.30;99.90;;;;;;5127550;27;20015;-79
2024/01/12 10:29:52;;;;;;;17.35;14.82;;;5.30;99.90;;;;;;5132381;27;20035;-80
2024/01/12 10:32:21;;;;;;;21.17;15.10;;;5.30;99.90;;;;;;5131243;27;20023;-79
2024/01/12 10:34:47;;;;;;;17.52;15.38;;;5.30;99.90;;;;;;5123519;27;20043;-79
2024/01/12 10:37:17;;;;;;;21.20;17.15;;;5.30;99.90;;;;;;5096864;28;20034;-79
2024/01/12 10:39:48;;;;;;;20.80;16.38;;;5.30;99.90;;;;;;5113043;28;20043;-80
2024/01/12 10:42:16;;;;;;;20.48;16.23;;;5.40;99.90;;;;;;5123908;27;20019;-80
2024/01/12 10:44:43;;;;;;;20.35;17.52;;;5.40;99.90;;;;;;5105988;27;20448;-80
2024/01/12 10:47:17;;;;;;;21.92;17.63;;;5.40;99.90;;;;;;5107335;27;20091;-79
2024/01/12 10:49:50;;;;;;;25.00;19.25;;;5.40;99.90;;;;;;5128545;27;20079;-79
2024/01/12 10:52:26;;;;;;;23.38;18.73;;;5.40;99.90;;;;;;5114420;27;20360;-79
2024/01/12 10:55:05;;;;;;;23.75;18.65;;;5.40;99.90;;;;;;5132965;27;20020;-80
2024/01/12 10:57:32;;;;;;;23.60;18.83;;;5.30;99.90;;;;;;5133123;27;20078;-80
2024/01/12 10:59:59;;;;;;;24.52;19.38;;;5.20;99.90;;;;;;5132663;27;20022;-79
2024/01/12 11:02:25;;;;;;;25.33;20.10;;;5.20;99.90;;;;;;5133377;27;20030;-79
2024/01/12 11:04:52;;;;;;;27.73;20.60;;;5.20;99.90;;;;;;5133724;27;20019;-78
2024/01/12 11:07:18;;;;;;;27.63;21.60;;;5.20;99.90;;;;;;5133486;27;20512;-78
2024/01/12 11:09:44;;;;;;;32.42;22.38;;;5.30;99.90;;;;;;5133589;27;20023;-78
2024/01/12 11:12:14;;;;;;;28.52;21.50;;;5.30;99.90;;;;;;5132756;27;20149;-78
2024/01/12 11:14:41;;;;;;;24.10;19.58;;;5.30;99.90;;;;;;5132857;27;20185;-78
2024/01/12 11:17:07;;;;;;;26.70;20.65;;;5.30;99.90;;;;;;5132747;27;20023;-79
2024/01/12 11:19:33;;;;;;;29.38;22.90;;;5.30;99.90;;;;;;5133149;27;20094;-79
2024/01/12 11:22:10;;;;;;;23.40;19.38;;;5.40;99.90;;;;;;5131745;27;20401;-78
2024/01/12 11:24:37;;;;;;;24.05;19.33;;;5.30;99.90;;;;;;5132169;27;20100;-78
2024/01/12 11:27:04;;;;;;;22.45;19.00;;;5.30;99.90;;;;;;5131447;27;20120;-79
2024/01/12 11:29:31;;;;;;;25.90;19.83;;;5.40;99.90;;;;;;5131528;27;20106;-79
2024/01/12 11:32:04;;;;;;;22.35;19.00;;;5.40;99.90;;;;;;5130794;27;20038;-78
2024/01/12 11:34:34;;;;;;;23.80;19.02;;;5.40;99.90;;;;;;5131336;27;20019;-79
2024/01/12 11:37:01;;;;;;;23.60;18.95;;;5.40;99.90;;;;;;5130817;27;20106;-82
2024/01/12 11:39:34;;;;;;;24.38;18.92;;;5.40;99.90;;;;;;5131519;27;20019;-82
2024/01/12 11:42:00;;;;;;;;;;;5.50;99.90;;;;;;5112780;27;20405;-82
2024/01/12 11:44:26;;;;;;;26.17;20.15;;;5.50;99.90;;;;;;5131430;27;19903;-81
2024/01/12 11:46:52;;;;;;;27.60;20.23;;;5.60;99.90;;;;;;5112984;27;20129;-82
2024/01/12 11:49:19;;;;;;;24.98;19.67;;;5.60;99.90;;;;;;5131776;27;20123;-82
2024/01/12 11:51:45;;;;;;;25.23;20.02;;;5.60;99.90;;;;;;5112352;28;20088;-82
2024/01/12 11:54:11;;;;;;;23.63;19.23;;;5.60;99.90;;;;;;5095115;28;20023;-82
2024/01/12 11:56:36;;;;;;;27.67;20.50;;;5.60;99.90;;;;;;5112700;28;20145;-82
2024/01/12 11:59:02;;;;;;;25.58;20.08;;;5.60;99.90;;;;;;5130590;28;20073;-81
2024/01/12 12:01:28;;;;;;;24.30;21.00;;;5.60;99.90;;;;;;5131162;28;20023;-82
2024/01/12 12:03:54;;;;;;;27.40;21.27;;;5.60;99.90;;;;;;5131323;28;20019;-81
2024/01/12 12:06:20;;;;;;;26.15;20.42;;;5.60;99.90;;;;;;5130854;28;20301;-81
2024/01/12 12:08:48;;;;;;;27.30;19.63;;;5.70;99.90;;;;;;5131171;28;20030;-81
2024/01/12 12:11:14;;;;;;;26.13;20.60;;;5.60;99.90;;;;;;5130808;28;20026;-82
2024/01/12 12:13:41;;;;;;;26.92;19.90;;;5.60;99.90;;;;;;5131953;28;20023;-81
2024/01/12 12:16:08;;;;;;;27.45;20.50;;;5.60;99.90;;;;;;5131140;28;20111;-81
2024/01/12 12:18:36;;;;;;;24.00;18.95;;;5.60;99.90;;;;;;5131741;28;20030;-81
2024/01/12 12:21:02;;;;;;;25.15;19.13;;;5.60;99.90;;;;;;5137773;28;20022;-81
2024/01/12 12:23:30;;;;;;;29.00;20.98;;;5.60;99.90;;;;;;5121364;27;20019;-81
2024/01/12 12:25:56;;;;;;;28.02;20.75;;;5.60;99.90;;;;;;5118811;27;20076;-81
2024/01/12 12:28:23;;;;;;;24.08;19.92;;;5.60;99.90;;;;;;5117117;27;20026;-82
2024/01/12 12:30:53;;;;;;;26.42;20.42;;;5.70;99.90;;;;;;5117054;27;20448;-81
2024/01/12 12:33:22;;;;;;;25.02;19.98;;;5.70;99.90;;;;;;5134809;27;20072;-82
2024/01/12 12:35:47;;;;;;;24.02;19.33;;;5.70;99.90;;;;;;5116446;27;20030;-81
2024/01/12 12:38:13;;;;;;;24.08;19.65;;;5.70;99.90;;;;;;5134405;27;20023;-81
2024/01/12 12:40:39;;;;;;;24.83;19.30;;;5.70;99.90;;;;;;5135402;27;20027;-82
2024/01/12 12:43:05;;;;;;;20.65;17.55;;;5.80;99.90;;;;;;5116372;27;20163;-81
2024/01/12 12:45:30;;;;;;;19.65;15.98;;;5.80;99.90;;;;;;5116836;27;20019;-81
2024/01/12 12:47:57;;;;;;;18.52;16.05;;;5.80;99.90;;;;;;5134682;27;20026;-81